首页
METAR-TAF:

METAR-TAF

机场 :

石油平台

Awg-1, 荷兰

纬度: 53-29-30N, 经度: 5-56-30E, 海拔: 33米

当前天气观测

该预报发布于38分钟前的00:55 UTC
风速7节,风向东转东南,在北转东北南转南东之间变化
温度 12°C
湿度 76%
气压 996 hPa
能见度10公里或以上

METAR: EHMA 260055Z AUTO 12007KT 020V150 9999 NSC 12/08 Q0996

时间: 03:33 (01:33 UTC)


TAF: 丢失

超过4000个机场的气象观测和天气预报(METAR&TAF报告)。

可查询的气象台以黄色和红色小点在地图上表示。

将鼠标移到小点上方,可查看气象台名称。

然后点击查看天气观测和预报。

如需切换地图:点击带黑十字的绿色按钮放大地图;点击带横线的绿色按钮缩小地图;或者点击绿色箭头查看邻近地区的地图。


METAR-TAF: